Time;durP1;ratioP1;P1;durP2;ratioP2;P2;SDS_P1;SDS_P2;PMS_P1;PMS_P2;Temp;Humidity;BMP_temperature;BMP_pressure;BME280_temperature;BME280_humidity;BME280_pressure;Samples;Min_cycle;Max_cycle;Signal;HPM_P1;HPM_P2
2022/02/01 00:01:25;;;;;;;5.11;4.75;;;;;;;18.40;44.36;100527.56;;;;-53
2022/02/01 00:04:28;;;;;;;5.51;5.11;;;;;;;18.38;44.33;100531.35;;;;-52
2022/02/01 00:07:23;;;;;;;4.37;4.06;;;;;;;18.36;44.34;100516.31;;;;-51
2022/02/01 00:10:21;;;;;;;5.97;5.53;;;;;;;18.34;44.35;100521.92;;;;-52
2022/02/01 00:13:27;;;;;;;5.79;5.38;;;;;;;18.33;44.33;100532.69;;;;-53
2022/02/01 00:16:47;;;;;;;6.66;6.16;;;;;;;18.30;44.38;100545.56;;;;-53
2022/02/01 00:35:32;;;;;;;7.04;6.49;;;;;;;18.20;44.39;100574.47;;;;-51
2022/02/01 00:38:20;;;;;;;6.33;5.87;;;;;;;18.18;44.38;100592.61;;;;-53
2022/02/01 00:41:18;;;;;;;5.23;4.83;;;;;;;18.17;44.46;100610.75;;;;-53
2022/02/01 00:44:16;;;;;;;8.35;7.66;;;;;;;18.15;44.49;100620.28;;;;-53
2022/02/01 00:47:16;;;;;;;6.81;6.31;;;;;;;18.14;44.52;100617.05;;;;-52
2022/02/01 00:50:17;;;;;;;5.95;5.52;;;;;;;18.13;44.45;100621.80;;;;-51
2022/02/01 00:53:21;;;;;;;6.74;6.24;;;;;;;18.11;44.51;100623.80;;;;-52
2022/02/01 00:56:16;;;;;;;7.11;6.59;;;;;;;18.10;44.48;100642.12;;;;-53
2022/02/01 00:59:16;;;;;;;5.78;5.38;;;;;;;18.08;44.49;100644.69;;;;-53
2022/02/01 01:02:16;;;;;;;7.83;7.20;;;;;;;18.06;44.47;100639.06;;;;-53
2022/02/01 01:05:16;;;;;;;7.67;7.07;;;;;;;18.05;44.50;100640.89;;;;-53
2022/02/01 01:08:16;;;;;;;7.35;6.76;;;;;;;18.04;44.50;100650.95;;;;-54
2022/02/01 01:11:16;;;;;;;7.47;6.88;;;;;;;18.02;44.53;100653.92;;;;-52
2022/02/01 01:14:56;;;;;;;7.97;7.29;;;;;;;18.01;44.56;100652.75;;;;-52
2022/02/01 01:43:37;;;;;;;12.37;11.32;;;;;;;17.87;44.52;100701.85;;;;-53
2022/02/01 01:55:16;;;;;;;7.46;6.86;;;;;;;17.82;44.54;100711.45;;;;-53
2022/02/01 01:58:16;;;;;;;5.85;5.38;;;;;;;17.81;44.56;100699.85;;;;-53
2022/02/01 02:01:16;;;;;;;7.33;6.75;;;;;;;17.80;44.57;100698.52;;;;-51
2022/02/01 02:04:16;;;;;;;8.61;7.94;;;;;;;17.79;44.54;100690.17;;;;-53
2022/02/01 02:07:16;;;;;;;6.64;6.14;;;;;;;17.78;44.56;100708.30;;;;-53
2022/02/01 02:10:17;;;;;;;6.37;5.87;;;;;;;17.76;44.56;100736.91;;;;-53
2022/02/01 02:14:19;;;;;;;7.33;6.66;;;;;;;17.75;44.57;100728.92;;;;-53
2022/02/01 02:17:16;;;;;;;8.30;7.64;;;;;;;17.74;44.57;100739.51;;;;-52
2022/02/01 02:20:16;;;;;;;14.77;13.55;;;;;;;17.73;44.57;100741.69;;;;-54
2022/02/01 02:23:16;;;;;;;4.71;4.31;;;;;;;17.72;44.55;100742.72;;;;-53
2022/02/01 02:26:16;;;;;;;4.56;4.22;;;;;;;17.71;44.54;100755.44;;;;-53
2022/02/01 02:29:16;;;;;;;4.94;4.39;;;;;;;17.70;44.52;100756.70;;;;-53
2022/02/01 02:32:16;;;;;;;5.14;4.69;;;;;;;17.68;44.53;100770.06;;;;-53
2022/02/01 02:35:16;;;;;;;6.31;5.75;;;;;;;17.67;44.53;100776.52;;;;-52
2022/02/01 02:38:25;;;;;;;6.95;6.39;;;;;;;17.66;44.49;100785.47;;;;-53
2022/02/01 02:41:30;;;;;;;8.40;7.69;;;;;;;17.64;44.50;100793.37;;;;-54
2022/02/01 02:47:16;;;;;;;6.96;6.30;;;;;;;17.62;44.54;100792.80;;;;-52
2022/02/01 02:50:16;;;;;;;8.94;8.17;;;;;;;17.61;44.53;100790.83;;;;-53
2022/02/01 02:53:16;;;;;;;7.55;6.87;;;;;;;17.61;44.44;100785.55;;;;-53
2022/02/01 02:56:16;;;;;;;8.89;8.12;;;;;;;17.60;44.51;100782.92;;;;-52
2022/02/01 02:59:16;;;;;;;9.08;8.27;;;;;;;17.58;44.44;100795.08;;;;-52
2022/02/01 03:02:16;;;;;;;8.78;8.03;;;;;;;17.56;44.42;100797.88;;;;-53
2022/02/01 03:05:16;;;;;;;7.69;7.08;;;;;;;17.55;44.40;100798.41;;;;-53
2022/02/01 03:08:16;;;;;;;7.63;7.01;;;;;;;17.54;44.45;100801.16;;;;-51
2022/02/01 03:11:16;;;;;;;7.71;7.03;;;;;;;17.54;44.43;100808.94;;;;-52
2022/02/01 03:14:25;;;;;;;5.81;5.31;;;;;;;17.53;44.46;100827.37;;;;-53
2022/02/01 03:17:23;;;;;;;7.25;6.64;;;;;;;17.53;44.44;100826.72;;;;-51
2022/02/01 03:20:16;;;;;;;6.28;5.76;;;;;;;17.51;44.44;100819.14;;;;-51
2022/02/01 03:23:16;;;;;;;6.37;5.87;;;;;;;17.50;44.44;100820.84;;;;-52
2022/02/01 03:26:16;;;;;;;7.18;6.51;;;;;;;17.49;44.49;100822.10;;;;-53
2022/02/01 03:29:16;;;;;;;7.11;6.42;;;;;;;17.48;44.45;100818.05;;;;-52
2022/02/01 03:32:16;;;;;;;5.35;4.91;;;;;;;17.46;44.44;100811.93;;;;-52
2022/02/01 03:35:16;;;;;;;5.41;4.90;;;;;;;17.46;44.46;100819.55;;;;-52
2022/02/01 03:38:16;;;;;;;5.57;5.07;;;;;;;17.45;44.44;100807.44;;;;-52
2022/02/01 03:41:16;;;;;;;4.11;3.71;;;;;;;17.45;44.49;100812.13;;;;-53
2022/02/01 03:44:16;;;;;;;3.13;1.95;;;;;;;17.43;44.42;100816.17;;;;-53
2022/02/01 03:47:16;;;;;;;2.99;1.62;;;;;;;17.42;44.47;100825.78;;;;-53
2022/02/01 03:50:16;;;;;;;4.09;3.69;;;;;;;17.42;44.40;100835.58;;;;-53
2022/02/01 03:53:17;;;;;;;5.76;5.26;;;;;;;17.41;44.46;100846.19;;;;-52
2022/02/01 03:56:16;;;;;;;6.57;6.05;;;;;;;17.40;44.42;100834.08;;;;-52
2022/02/01 03:59:17;;;;;;;6.55;5.99;;;;;;;17.39;44.44;100835.05;;;;-53
2022/02/01 04:02:16;;;;;;;5.07;4.67;;;;;;;17.38;44.41;100847.56;;;;-53
2022/02/01 04:05:16;;;;;;;5.47;4.97;;;;;;;17.37;44.45;100857.09;;;;-53
2022/02/01 04:08:18;;;;;;;5.49;4.84;;;;;;;17.35;44.43;100854.00;;;;-53
2022/02/01 04:11:16;;;;;;;3.79;3.43;;;;;;;17.35;44.35;100860.31;;;;-53
2022/02/01 04:14:20;;;;;;;3.85;3.43;;;;;;;17.34;44.42;100864.73;;;;-53
2022/02/01 04:17:16;;;;;;;3.19;2.75;;;;;;;17.33;44.39;100871.05;;;;-53
2022/02/01 04:20:16;;;;;;;4.05;2.65;;;;;;;17.33;44.34;100880.33;;;;-53
2022/02/01 04:23:16;;;;;;;3.77;3.36;;;;;;;17.32;44.35;100885.83;;;;-53
2022/02/01 04:26:16;;;;;;;3.35;3.05;;;;;;;17.31;44.32;100886.28;;;;-52
2022/02/01 04:29:16;;;;;;;4.36;3.82;;;;;;;17.30;44.41;100878.09;;;;-52
2022/02/01 04:32:16;;;;;;;4.52;3.91;;;;;;;17.29;44.36;100870.55;;;;-53
2022/02/01 04:35:16;;;;;;;3.91;3.61;;;;;;;17.28;44.41;100869.79;;;;-52
2022/02/01 04:38:16;;;;;;;4.91;3.64;;;;;;;17.28;44.40;100876.91;;;;-53
2022/02/01 04:41:16;;;;;;;3.86;3.51;;;;;;;17.26;44.42;100865.64;;;;-52
2022/02/01 04:44:16;;;;;;;3.79;3.30;;;;;;;17.25;44.40;100859.29;;;;-53
2022/02/01 04:47:16;;;;;;;4.73;4.31;;;;;;;17.26;44.40;100870.06;;;;-53
2022/02/01 04:50:16;;;;;;;4.47;4.07;;;;;;;17.25;44.38;100876.53;;;;-53
2022/02/01 04:53:16;;;;;;;4.30;3.91;;;;;;;17.24;44.38;100887.47;;;;-53
2022/02/01 04:56:16;;;;;;;4.89;4.47;;;;;;;17.24;44.39;100887.03;;;;-53
2022/02/01 04:59:16;;;;;;;5.75;4.74;;;;;;;17.23;44.39;100873.82;;;;-53
2022/02/01 05:02:16;;;;;;;4.71;4.31;;;;;;;17.22;44.36;100875.89;;;;-53
2022/02/01 05:05:18;;;;;;;6.23;5.68;;;;;;;17.21;44.39;100870.70;;;;-51
2022/02/01 05:08:16;;;;;;;6.02;5.49;;;;;;;17.20;44.41;100872.44;;;;-52
2022/02/01 05:11:16;;;;;;;5.24;4.72;;;;;;;17.20;44.42;100885.64;;;;-52
2022/02/01 05:14:20;;;;;;;5.50;4.99;;;;;;;17.18;44.33;100886.20;;;;-53
2022/02/01 05:17:18;;;;;;;5.30;4.83;;;;;;;17.17;44.37;100895.63;;;;-53
2022/02/01 05:20:26;;;;;;;5.27;4.85;;;;;;;17.18;44.38;100914.83;;;;-52
2022/02/01 05:23:18;;;;;;;6.23;5.73;;;;;;;17.17;44.33;100901.05;;;;-53
2022/02/01 05:26:16;;;;;;;5.62;5.09;;;;;;;17.16;44.36;100893.44;;;;-52
2022/02/01 05:29:18;;;;;;;8.87;8.10;;;;;;;17.16;44.35;100899.92;;;;-53
2022/02/01 05:32:23;;;;;;;5.65;5.21;;;;;;;17.15;44.38;100914.62;;;;-52
2022/02/01 05:35:16;;;;;;;5.37;4.92;;;;;;;17.14;44.37;100912.10;;;;-53
2022/02/01 05:38:16;;;;;;;6.09;5.57;;;;;;;17.13;44.42;100911.25;;;;-53
2022/02/01 05:41:16;;;;;;;6.79;6.25;;;;;;;17.13;44.42;100903.72;;;;-53
2022/02/01 05:44:16;;;;;;;6.49;5.94;;;;;;;17.13;44.46;100904.05;;;;-52
2022/02/01 05:47:16;;;;;;;7.01;6.41;;;;;;;17.13;44.47;100906.39;;;;-52
2022/02/01 05:50:16;;;;;;;33.88;8.25;;;;;;;17.07;42.44;100913.29;;;;-50
2022/02/01 05:53:16;;;;;;;11.43;9.92;;;;;;;16.88;40.26;100907.50;;;;-50
2022/02/01 05:56:16;;;;;;;13.65;11.39;;;;;;;16.68;39.53;100907.54;;;;-60
2022/02/01 05:59:16;;;;;;;15.71;12.33;;;;;;;16.72;40.82;100901.08;;;;-52
2022/02/01 06:02:18;;;;;;;10.97;9.34;;;;;;;16.79;41.77;100914.38;;;;-50
2022/02/01 06:05:16;;;;;;;11.21;9.39;;;;;;;16.84;42.21;100917.84;;;;-55
2022/02/01 06:08:16;;;;;;;11.25;9.84;;;;;;;16.87;42.34;100931.38;;;;-53
2022/02/01 06:11:16;;;;;;;9.89;8.41;;;;;;;16.90;42.60;100921.39;;;;-54
2022/02/01 06:14:16;;;;;;;9.17;8.25;;;;;;;16.93;42.67;100911.50;;;;-53
2022/02/01 06:17:16;;;;;;;11.91;10.77;;;;;;;16.96;42.82;100917.49;;;;-51
2022/02/01 06:20:16;;;;;;;10.53;9.49;;;;;;;16.99;42.94;100922.16;;;;-50
2022/02/01 06:23:16;;;;;;;11.35;10.15;;;;;;;17.01;42.95;100924.89;;;;-52
2022/02/01 06:26:16;;;;;;;13.48;12.11;;;;;;;17.06;43.05;100937.81;;;;-50
2022/02/01 06:29:16;;;;;;;17.64;16.02;;;;;;;17.08;43.17;100940.30;;;;-50
2022/02/01 06:32:16;;;;;;;18.40;16.73;;;;;;;17.11;43.27;100939.70;;;;-47
2022/02/01 06:35:16;;;;;;;40.24;36.95;;;;;;;17.13;43.43;100953.84;;;;-47
2022/02/01 06:38:16;;;;;;;16.47;14.91;;;;;;;17.17;43.49;100971.67;;;;-47
2022/02/01 06:41:16;;;;;;;17.78;16.11;;;;;;;17.19;43.59;100973.35;;;;-47
2022/02/01 06:44:16;;;;;;;17.75;16.10;;;;;;;17.22;43.55;100976.23;;;;-47
2022/02/01 06:47:16;;;;;;;20.03;18.32;;;;;;;17.24;43.60;100984.62;;;;-54
2022/02/01 06:50:19;;;;;;;17.62;16.03;;;;;;;17.25;43.57;100989.53;;;;-53
2022/02/01 06:53:18;;;;;;;16.91;15.31;;;;;;;17.27;43.59;100985.05;;;;-51
2022/02/01 06:56:19;;;;;;;17.33;15.79;;;;;;;17.29;43.65;100996.84;;;;-53
2022/02/01 06:59:16;;;;;;;13.72;12.39;;;;;;;17.30;43.60;101000.98;;;;-47
2022/02/01 07:02:16;;;;;;;17.86;16.13;;;;;;;17.31;43.59;101027.67;;;;-53
2022/02/01 07:05:16;;;;;;;18.15;16.60;;;;;;;17.32;43.61;101020.63;;;;-53
2022/02/01 07:08:16;;;;;;;17.25;15.68;;;;;;;17.33;43.60;100997.62;;;;-47
2022/02/01 07:11:16;;;;;;;16.19;14.75;;;;;;;17.33;43.60;100998.88;;;;-53
2022/02/01 07:14:16;;;;;;;16.17;14.69;;;;;;;17.34;43.68;100993.87;;;;-53
2022/02/01 07:17:16;;;;;;;18.14;16.53;;;;;;;17.35;43.67;100983.70;;;;-47
2022/02/01 07:20:16;;;;;;;14.93;13.53;;;;;;;17.35;43.75;100977.70;;;;-50
2022/02/01 07:23:22;;;;;;;15.71;14.34;;;;;;;17.36;43.72;100967.09;;;;-47
2022/02/01 07:26:16;;;;;;;16.11;14.73;;;;;;;17.37;43.74;100952.69;;;;-46
2022/02/01 07:29:16;;;;;;;16.82;15.33;;;;;;;17.37;43.66;100948.14;;;;-47
2022/02/01 07:32:16;;;;;;;15.13;13.69;;;;;;;17.37;43.70;100959.66;;;;-53
2022/02/01 07:35:16;;;;;;;15.36;13.91;;;;;;;17.37;43.72;100943.41;;;;-53
2022/02/01 07:38:18;;;;;;;14.69;13.38;;;;;;;17.37;43.75;100937.89;;;;-53
2022/02/01 07:41:16;;;;;;;12.59;11.41;;;;;;;17.37;43.74;100931.00;;;;-47
2022/02/01 07:44:16;;;;;;;11.27;10.23;;;;;;;17.37;43.74;100936.27;;;;-47
2022/02/01 07:47:21;;;;;;;11.19;10.15;;;;;;;17.37;43.76;100944.13;;;;-53
2022/02/01 07:50:16;;;;;;;9.23;8.38;;;;;;;17.37;43.75;100955.60;;;;-53
2022/02/01 07:53:16;;;;;;;12.29;11.16;;;;;;;17.36;43.78;100956.25;;;;-53
2022/02/01 07:56:16;;;;;;;12.91;11.67;;;;;;;17.36;43.75;100967.27;;;;-53
2022/02/01 07:59:16;;;;;;;11.97;10.94;;;;;;;17.36;43.77;100951.63;;;;-53
2022/02/01 08:02:21;;;;;;;12.61;11.40;;;;;;;17.35;43.80;100962.72;;;;-54
2022/02/01 08:05:16;;;;;;;10.33;9.46;;;;;;;17.35;43.81;100960.28;;;;-53
2022/02/01 08:08:16;;;;;;;6.99;6.35;;;;;;;17.34;43.81;100962.76;;;;-52
2022/02/01 08:11:17;;;;;;;2.93;2.29;;;;;;;17.33;43.86;100976.20;;;;-53
2022/02/01 08:19:26;;;;;;;8.79;8.09;;;;;;;17.32;43.79;100965.95;;;;-54
2022/02/01 08:22:32;;;;;;;8.61;7.84;;;;;;;17.31;43.80;100977.45;;;;-53
2022/02/01 08:25:16;;;;;;;7.63;6.95;;;;;;;17.30;43.85;100978.38;;;;-53
2022/02/01 08:28:16;;;;;;;6.06;5.53;;;;;;;17.31;43.84;100997.30;;;;-53
2022/02/01 08:31:16;;;;;;;6.57;6.01;;;;;;;17.30;43.86;100983.89;;;;-53
2022/02/01 08:34:16;;;;;;;6.57;5.94;;;;;;;17.29;43.83;100984.69;;;;-53
2022/02/01 08:37:16;;;;;;;3.57;2.60;;;;;;;17.29;43.86;100995.55;;;;-53
2022/02/01 08:40:16;;;;;;;4.91;4.49;;;;;;;17.28;43.85;100982.06;;;;-52
2022/02/01 08:43:16;;;;;;;7.40;6.77;;;;;;;17.28;43.88;100979.78;;;;-47
2022/02/01 08:46:18;;;;;;;7.59;6.89;;;;;;;17.27;43.88;100975.56;;;;-47
2022/02/01 08:49:16;;;;;;;7.70;7.07;;;;;;;17.26;43.84;100974.19;;;;-53
2022/02/01 08:52:26;;;;;;;6.54;6.02;;;;;;;17.26;43.87;100966.13;;;;-53
2022/02/01 08:55:32;;;;;;;8.78;7.99;;;;;;;17.25;43.86;100973.73;;;;-52
2022/02/01 08:58:16;;;;;;;8.67;7.81;;;;;;;17.25;43.94;100968.23;;;;-57
2022/02/01 09:01:16;;;;;;;7.11;6.52;;;;;;;17.26;44.46;100971.31;;;;-57
2022/02/01 09:04:16;;;;;;;6.43;5.85;;;;;;;17.27;44.58;100976.22;;;;-54
2022/02/01 09:07:16;;;;;;;6.69;6.09;;;;;;;17.29;44.61;100974.97;;;;-52
2022/02/01 09:10:16;;;;;;;6.86;6.27;;;;;;;17.30;44.65;100978.05;;;;-55
2022/02/01 09:13:16;;;;;;;7.25;6.61;;;;;;;17.32;44.73;100964.33;;;;-54
2022/02/01 09:16:16;;;;;;;7.99;6.83;;;;;;;17.32;44.76;100971.38;;;;-58
2022/02/01 09:19:17;;;;;;;7.11;6.35;;;;;;;17.33;44.79;100976.44;;;;-58
2022/02/01 09:22:16;;;;;;;7.57;6.91;;;;;;;17.34;44.84;100967.22;;;;-60
2022/02/01 09:25:17;;;;;;;7.11;6.51;;;;;;;17.35;44.86;100959.39;;;;-55
2022/02/01 09:28:16;;;;;;;6.39;5.85;;;;;;;17.36;44.92;100952.35;;;;-55
2022/02/01 09:31:16;;;;;;;5.97;5.47;;;;;;;17.37;44.92;100945.99;;;;-56
2022/02/01 09:34:16;;;;;;;5.85;5.29;;;;;;;17.38;44.88;100950.05;;;;-55
2022/02/01 09:37:16;;;;;;;5.60;5.11;;;;;;;17.39;44.99;100961.16;;;;-57
2022/02/01 09:40:16;;;;;;;6.47;5.84;;;;;;;17.39;45.00;100951.95;;;;-53
2022/02/01 09:43:17;;;;;;;7.54;6.05;;;;;;;17.41;45.02;100950.83;;;;-53
2022/02/01 09:46:16;;;;;;;7.19;6.47;;;;;;;17.41;44.96;100952.65;;;;-59
2022/02/01 09:49:19;;;;;;;6.71;6.12;;;;;;;17.41;44.97;100955.08;;;;-58
2022/02/01 09:52:16;;;;;;;6.43;5.87;;;;;;;17.42;44.96;100953.62;;;;-57
2022/02/01 09:55:17;;;;;;;7.09;6.38;;;;;;;17.43;44.99;100958.41;;;;-54
2022/02/01 09:58:17;;;;;;;7.41;6.80;;;;;;;17.43;45.01;100963.20;;;;-55
2022/02/01 10:01:17;;;;;;;6.79;6.21;;;;;;;17.45;44.93;100959.06;;;;-58
2022/02/01 10:04:16;;;;;;;6.37;5.83;;;;;;;17.49;45.07;100944.97;;;;-57
2022/02/01 10:07:16;;;;;;;6.35;5.82;;;;;;;17.55;45.11;100937.54;;;;-53
2022/02/01 10:10:16;;;;;;;7.29;6.67;;;;;;;17.62;45.04;100939.70;;;;-55
2022/02/01 10:13:18;;;;;;;4.95;4.27;;;;;;;17.66;44.86;100930.50;;;;-54
2022/02/01 10:16:27;;;;;;;7.01;6.43;;;;;;;17.74;45.06;100942.89;;;;-56
2022/02/01 10:19:17;;;;;;;6.66;6.13;;;;;;;17.77;44.82;100937.54;;;;-56
2022/02/01 10:22:16;;;;;;;6.12;5.60;;;;;;;17.81;44.88;100937.22;;;;-55
2022/02/01 10:25:16;;;;;;;5.71;5.25;;;;;;;17.84;44.80;100933.41;;;;-57
2022/02/01 10:28:16;;;;;;;5.39;4.94;;;;;;;17.87;44.74;100929.34;;;;-56
2022/02/01 10:31:17;;;;;;;5.63;5.19;;;;;;;17.91;44.72;100931.46;;;;-56
2022/02/01 10:34:40;;;;;;;5.29;4.82;;;;;;;17.93;44.64;100924.41;;;;-56
2022/02/01 10:37:16;;;;;;;6.89;6.27;;;;;;;17.99;44.99;100913.83;;;;-56
2022/02/01 10:40:16;;;;;;;9.78;5.85;;;;;;;18.05;44.98;100919.47;;;;-54
2022/02/01 10:43:16;;;;;;;6.43;5.28;;;;;;;18.11;44.90;100913.09;;;;-52
2022/02/01 10:46:17;;;;;;;6.51;6.00;;;;;;;18.16;44.89;100902.34;;;;-52
2022/02/01 10:49:16;;;;;;;10.85;6.21;;;;;;;18.20;44.68;100899.23;;;;-52
2022/02/01 10:52:16;;;;;;;7.67;6.75;;;;;;;18.28;44.84;100903.35;;;;-54
2022/02/01 10:55:18;;;;;;;7.61;6.86;;;;;;;18.37;44.94;100888.61;;;;-62
2022/02/01 10:58:16;;;;;;;8.27;7.43;;;;;;;18.41;44.96;100870.98;;;;-56
2022/02/01 11:01:16;;;;;;;8.73;6.27;;;;;;;18.44;44.81;100859.83;;;;-54
2022/02/01 11:04:16;;;;;;;11.34;6.57;;;;;;;18.49;45.02;100844.02;;;;-51
2022/02/01 11:07:16;;;;;;;7.65;5.88;;;;;;;18.52;44.91;100832.30;;;;-52
2022/02/01 11:10:16;;;;;;;7.93;7.01;;;;;;;18.51;44.38;100816.30;;;;-56
2022/02/01 11:13:16;;;;;;;7.28;5.84;;;;;;;18.51;44.05;100815.89;;;;-56
2022/02/01 11:16:16;;;;;;;5.13;4.47;;;;;;;18.52;44.20;100804.13;;;;-55
2022/02/01 11:19:16;;;;;;;6.45;4.04;;;;;;;18.52;44.26;100796.74;;;;-54
2022/02/01 11:22:16;;;;;;;5.36;4.69;;;;;;;18.54;44.23;100794.26;;;;-54
2022/02/01 11:25:20;;;;;;;4.53;3.87;;;;;;;18.55;44.31;100789.17;;;;-55
2022/02/01 11:28:31;;;;;;;5.45;4.95;;;;;;;18.57;44.11;100781.79;;;;-54
2022/02/01 11:31:16;;;;;;;6.67;5.79;;;;;;;18.57;44.22;100772.48;;;;-55
2022/02/01 11:34:16;;;;;;;5.89;5.11;;;;;;;18.60;44.20;100768.46;;;;-54
2022/02/01 11:37:17;;;;;;;9.05;8.20;;;;;;;18.61;44.23;100760.83;;;;-54
2022/02/01 11:40:16;;;;;;;7.93;7.21;;;;;;;18.63;44.20;100751.69;;;;-55
2022/02/01 11:43:16;;;;;;;7.13;6.21;;;;;;;18.64;44.21;100739.46;;;;-56
2022/02/01 11:46:16;;;;;;;8.45;7.61;;;;;;;18.66;44.18;100738.36;;;;-51
2022/02/01 11:49:16;;;;;;;10.59;9.60;;;;;;;18.72;43.86;100724.80;;;;-57
2022/02/01 11:52:17;;;;;;;8.33;7.57;;;;;;;18.72;43.86;100715.22;;;;-53
2022/02/01 11:55:16;;;;;;;11.33;10.30;;;;;;;18.77;44.15;100709.27;;;;-65
2022/02/01 11:58:16;;;;;;;10.22;9.32;;;;;;;18.79;44.03;100702.51;;;;-53
2022/02/01 12:01:16;;;;;;;7.83;6.66;;;;;;;18.79;43.55;100684.80;;;;-54
2022/02/01 12:04:18;;;;;;;9.00;8.16;;;;;;;18.79;43.52;100681.08;;;;-54
2022/02/01 12:07:23;;;;;;;10.04;9.03;;;;;;;18.79;43.41;100678.72;;;;-54
2022/02/01 12:10:16;;;;;;;10.73;9.75;;;;;;;18.81;43.70;100669.81;;;;-54
2022/02/01 12:13:16;;;;;;;8.67;7.82;;;;;;;18.81;43.46;100669.89;;;;-54
2022/02/01 12:16:16;;;;;;;10.29;9.36;;;;;;;18.82;43.42;100655.60;;;;-54
2022/02/01 12:19:16;;;;;;;9.49;8.42;;;;;;;18.82;43.35;100648.21;;;;-53
2022/02/01 12:22:16;;;;;;;9.26;8.50;;;;;;;18.84;43.26;100635.00;;;;-54
2022/02/01 12:25:16;;;;;;;8.75;8.02;;;;;;;18.84;43.18;100632.56;;;;-54
2022/02/01 12:28:17;;;;;;;8.25;7.53;;;;;;;18.85;43.11;100623.58;;;;-53
2022/02/01 12:31:16;;;;;;;9.29;8.46;;;;;;;18.86;43.05;100622.12;;;;-54
2022/02/01 12:34:16;;;;;;;10.84;9.51;;;;;;;18.92;43.26;100616.83;;;;-54
2022/02/01 12:37:16;;;;;;;8.67;7.84;;;;;;;18.91;43.42;100599.20;;;;-55
2022/02/01 12:40:16;;;;;;;11.21;7.76;;;;;;;18.93;43.54;100592.66;;;;-54
2022/02/01 12:43:20;;;;;;;9.95;9.08;;;;;;;18.95;43.61;100580.50;;;;-55
2022/02/01 12:46:33;;;;;;;9.11;8.27;;;;;;;18.96;43.63;100567.41;;;;-54
2022/02/01 12:49:16;;;;;;;8.16;7.47;;;;;;;18.97;43.59;100552.58;;;;-54
2022/02/01 12:52:16;;;;;;;9.63;8.76;;;;;;;18.97;43.56;100547.38;;;;-55
2022/02/01 12:55:16;;;;;;;9.95;9.02;;;;;;;18.99;43.62;100550.48;;;;-54
2022/02/01 12:58:16;;;;;;;7.95;7.29;;;;;;;19.01;43.71;100556.03;;;;-55
2022/02/01 13:01:16;;;;;;;7.07;6.45;;;;;;;19.02;43.63;100555.13;;;;-55
2022/02/01 13:04:16;;;;;;;6.59;5.96;;;;;;;19.04;43.74;100556.20;;;;-55
2022/02/01 13:07:24;;;;;;;6.91;6.39;;;;;;;19.05;43.69;100551.81;;;;-55
2022/02/01 13:17:34;;;;;;;6.86;6.23;;;;;;;19.10;43.70;100520.85;;;;-57
2022/02/01 13:20:18;;;;;;;8.61;7.91;;;;;;;19.11;43.67;100501.52;;;;-54
2022/02/01 13:23:16;;;;;;;8.90;8.19;;;;;;;19.14;43.73;100496.36;;;;-55
2022/02/01 13:26:16;;;;;;;8.67;8.02;;;;;;;19.13;43.69;100499.53;;;;-55
2022/02/01 13:29:16;;;;;;;7.63;7.05;;;;;;;19.15;43.68;100507.48;;;;-54
2022/02/01 13:32:16;;;;;;;8.99;8.21;;;;;;;19.16;43.67;100497.03;;;;-54
2022/02/01 13:35:16;;;;;;;6.44;5.93;;;;;;;19.17;43.71;100495.83;;;;-54
2022/02/01 13:38:16;;;;;;;6.55;6.03;;;;;;;19.20;43.72;100497.14;;;;-54
2022/02/01 13:41:16;;;;;;;14.31;13.15;;;;;;;19.22;43.66;100480.34;;;;-54
2022/02/01 13:44:16;;;;;;;10.79;9.73;;;;;;;19.25;43.74;100479.86;;;;-51
2022/02/01 13:47:16;;;;;;;10.85;9.63;;;;;;;19.28;43.70;100470.80;;;;-50
2022/02/01 13:50:16;;;;;;;8.81;8.00;;;;;;;19.35;43.73;100471.08;;;;-53
2022/02/01 13:53:17;;;;;;;10.41;9.47;;;;;;;19.36;43.82;100471.89;;;;-50
2022/02/01 13:56:16;;;;;;;9.73;8.79;;;;;;;19.38;43.94;100466.05;;;;-51
2022/02/01 13:59:17;;;;;;;11.15;10.12;;;;;;;19.38;43.98;100457.06;;;;-50
2022/02/01 14:02:20;;;;;;;11.43;10.53;;;;;;;19.41;44.01;100450.56;;;;-53
2022/02/01 14:05:28;;;;;;;10.90;9.91;;;;;;;19.43;43.99;100442.53;;;;-53
2022/02/01 14:08:58;;;;;;;10.03;9.14;;;;;;;19.47;44.12;100436.22;;;;-52
2022/02/01 14:11:40;;;;;;;8.69;7.97;;;;;;;19.47;44.03;100435.73;;;;-55
2022/02/01 14:14:41;;;;;;;8.21;7.48;;;;;;;19.49;44.07;100430.71;;;;-56
2022/02/01 14:24:08;;;;;;;6.04;5.06;;;;;;;19.56;44.20;100410.50;;;;-53
2022/02/01 14:26:41;;;;;;;8.52;6.72;;;;;;;19.57;44.06;100408.22;;;;-53
2022/02/01 14:37:21;;;;;;;16.56;9.20;;;;;;;19.53;43.07;100399.03;;;;-52
2022/02/01 14:43:35;;;;;;;7.03;6.39;;;;;;;19.49;42.89;100387.72;;;;-53
2022/02/01 14:46:16;;;;;;;5.95;5.45;;;;;;;19.48;42.95;100378.50;;;;-52
2022/02/01 14:49:16;;;;;;;7.12;6.46;;;;;;;19.47;42.81;100371.53;;;;-56
2022/02/01 14:52:17;;;;;;;4.09;3.75;;;;;;;19.47;42.87;100363.97;;;;-57
2022/02/01 14:55:22;;;;;;;5.69;5.11;;;;;;;19.47;42.92;100345.28;;;;-56
2022/02/01 15:12:41;;;;;;;5.77;5.28;;;;;;;19.47;42.87;100343.57;;;;-51
2022/02/01 15:15:16;;;;;;;5.32;4.88;;;;;;;19.46;42.94;100341.87;;;;-50
2022/02/01 15:18:16;;;;;;;5.90;5.38;;;;;;;19.48;42.96;100348.60;;;;-50
2022/02/01 15:21:16;;;;;;;6.31;5.03;;;;;;;19.47;43.11;100353.98;;;;-50
2022/02/01 15:24:16;;;;;;;9.12;7.53;;;;;;;19.42;42.73;100345.10;;;;-52
2022/02/01 15:27:18;;;;;;;8.85;6.71;;;;;;;19.38;42.71;100343.78;;;;-54
2022/02/01 15:30:16;;;;;;;7.45;6.37;;;;;;;19.36;42.89;100339.84;;;;-51
2022/02/01 15:33:17;;;;;;;9.56;6.94;;;;;;;19.33;43.05;100354.95;;;;-51
2022/02/01 15:36:16;;;;;;;8.11;7.03;;;;;;;19.31;43.05;100322.20;;;;-50
2022/02/01 15:57:23;;;;;;;6.93;4.72;;;;;;;19.26;43.34;100307.40;;;;-52
2022/02/01 16:00:22;;;;;;;6.45;5.24;;;;;;;19.25;43.32;100299.83;;;;-58
2022/02/01 16:03:22;;;;;;;6.42;5.36;;;;;;;19.25;43.35;100294.70;;;;-56
2022/02/01 16:06:16;;;;;;;5.33;4.40;;;;;;;19.24;43.47;100289.84;;;;-58
2022/02/01 16:09:23;;;;;;;5.31;4.53;;;;;;;19.24;43.44;100268.23;;;;-53
2022/02/01 16:12:20;;;;;;;6.34;5.59;;;;;;;19.24;43.36;100273.27;;;;-54
2022/02/01 16:15:16;;;;;;;5.55;4.27;;;;;;;19.23;43.33;100259.27;;;;-52
2022/02/01 16:18:16;;;;;;;5.07;3.29;;;;;;;19.23;43.27;100264.31;;;;-52
2022/02/01 16:21:16;;;;;;;10.06;4.80;;;;;;;19.33;43.56;100264.27;;;;-62
2022/02/01 16:24:16;;;;;;;6.57;3.90;;;;;;;19.43;43.72;100270.17;;;;-48
2022/02/01 16:27:16;;;;;;;8.26;4.67;;;;;;;19.52;43.90;100280.11;;;;-52
2022/02/01 16:30:16;;;;;;;4.47;3.06;;;;;;;19.59;43.77;100280.44;;;;-57
2022/02/01 16:33:16;;;;;;;4.23;3.79;;;;;;;19.61;43.76;100271.27;;;;-55
2022/02/01 16:36:16;;;;;;;7.41;3.78;;;;;;;19.62;43.76;100264.36;;;;-57
2022/02/01 16:39:16;;;;;;;4.16;3.05;;;;;;;19.65;43.73;100265.98;;;;-62
2022/02/01 16:42:18;;;;;;;4.00;3.15;;;;;;;19.68;43.61;100273.58;;;;-56
2022/02/01 16:45:18;;;;;;;6.22;4.87;;;;;;;19.66;43.59;100276.41;;;;-55
2022/02/01 16:48:17;;;;;;;5.18;3.69;;;;;;;19.65;43.52;100271.05;;;;-60
2022/02/01 16:51:16;;;;;;;9.65;3.23;;;;;;;19.64;43.43;100273.89;;;;-56
2022/02/01 16:54:18;;;;;;;3.17;2.86;;;;;;;19.62;42.99;100276.55;;;;-55
2022/02/01 16:57:16;;;;;;;4.64;2.61;;;;;;;19.66;43.21;100267.63;;;;-60
2022/02/01 17:00:18;;;;;;;3.42;2.70;;;;;;;19.66;43.06;100262.43;;;;-54
2022/02/01 17:03:18;;;;;;;4.11;2.63;;;;;;;19.68;43.13;100261.30;;;;-60
2022/02/01 17:06:16;;;;;;;4.02;2.69;;;;;;;19.70;43.16;100271.95;;;;-52
2022/02/01 17:09:16;;;;;;;5.03;2.45;;;;;;;19.72;43.08;100267.69;;;;-56
2022/02/01 17:12:28;;;;;;;3.29;2.27;;;;;;;19.73;43.00;100259.53;;;;-51
2022/02/01 17:19:31;;;;;;;3.93;3.56;;;;;;;19.78;42.93;100267.53;;;;-51
2022/02/01 17:22:16;;;;;;;3.82;3.45;;;;;;;19.79;42.75;100263.20;;;;-57
2022/02/01 17:25:16;;;;;;;3.53;3.23;;;;;;;19.81;42.84;100266.23;;;;-58
2022/02/01 17:28:16;;;;;;;4.93;4.15;;;;;;;19.83;42.86;100255.66;;;;-54
2022/02/01 17:31:16;;;;;;;3.83;3.53;;;;;;;19.85;42.91;100255.58;;;;-51
2022/02/01 17:34:16;;;;;;;4.04;3.72;;;;;;;19.86;42.87;100259.91;;;;-53
2022/02/01 17:37:16;;;;;;;2.67;2.12;;;;;;;19.86;42.90;100260.87;;;;-52
2022/02/01 17:40:16;;;;;;;3.22;2.85;;;;;;;19.89;42.91;100259.00;;;;-52
2022/02/01 17:43:16;;;;;;;6.47;5.45;;;;;;;19.91;42.92;100239.73;;;;-50
2022/02/01 17:46:18;;;;;;;4.69;3.79;;;;;;;19.94;43.01;100241.02;;;;-52
2022/02/01 17:49:18;;;;;;;4.82;4.11;;;;;;;19.98;43.00;100236.25;;;;-52
2022/02/01 17:52:28;;;;;;;2.55;2.35;;;;;;;19.99;43.04;100235.11;;;;-52
2022/02/01 17:55:16;;;;;;;3.49;2.27;;;;;;;20.00;43.09;100217.84;;;;-53
2022/02/01 17:58:16;;;;;;;6.01;2.66;;;;;;;20.02;43.03;100222.48;;;;-55
2022/02/01 18:01:16;;;;;;;2.95;2.37;;;;;;;20.01;42.89;100227.71;;;;-55
2022/02/01 18:04:16;;;;;;;4.67;3.01;;;;;;;19.99;42.97;100219.33;;;;-55
2022/02/01 18:07:19;;;;;;;2.37;2.17;;;;;;;19.99;42.98;100228.92;;;;-55
2022/02/01 18:10:16;;;;;;;3.03;2.39;;;;;;;19.99;42.94;100219.73;;;;-56
2022/02/01 18:13:27;;;;;;;2.47;2.27;;;;;;;19.99;42.95;100218.92;;;;-55
2022/02/01 18:16:16;;;;;;;3.11;2.90;;;;;;;19.99;42.99;100224.36;;;;-56
2022/02/01 18:19:16;;;;;;;2.82;2.61;;;;;;;19.98;43.03;100226.63;;;;-55
2022/02/01 18:22:16;;;;;;;3.18;2.63;;;;;;;19.99;43.00;100243.16;;;;-56
2022/02/01 18:25:18;;;;;;;2.11;1.91;;;;;;;19.99;43.01;100232.58;;;;-56
2022/02/01 18:28:16;;;;;;;2.24;2.04;;;;;;;20.00;43.02;100236.31;;;;-56
2022/02/01 18:31:16;;;;;;;3.19;2.90;;;;;;;20.00;43.01;100246.39;;;;-55
2022/02/01 18:34:16;;;;;;;2.90;2.63;;;;;;;20.00;42.97;100239.73;;;;-55
2022/02/01 18:37:16;;;;;;;2.19;1.99;;;;;;;19.99;43.01;100227.62;;;;-55